sensor_id;sensor_type;location;lat;lon;timestamp;P1;durP1;ratioP1;P2;durP2;ratioP2
8536;SDS011;4306;50.210;10.628;2023-03-14T00:00:08;1.23;;;0.57;;
8536;SDS011;4306;50.210;10.628;2023-03-14T00:02:38;1.27;;;0.50;;
8536;SDS011;4306;50.210;10.628;2023-03-14T00:05:05;1.45;;;0.63;;
8536;SDS011;4306;50.210;10.628;2023-03-14T00:07:34;1.55;;;0.70;;
8536;SDS011;4306;50.210;10.628;2023-03-14T00:10:02;1.40;;;0.95;;
8536;SDS011;4306;50.210;10.628;2023-03-14T00:12:30;2.97;;;0.80;;
8536;SDS011;4306;50.210;10.628;2023-03-14T00:14:57;3.38;;;1.20;;
8536;SDS011;4306;50.210;10.628;2023-03-14T00:17:28;3.35;;;0.90;;
8536;SDS011;4306;50.210;10.628;2023-03-14T00:19:57;1.92;;;0.80;;
8536;SDS011;4306;50.210;10.628;2023-03-14T00:22:29;2.47;;;1.05;;
8536;SDS011;4306;50.210;10.628;2023-03-14T00:24:56;2.58;;;0.80;;
8536;SDS011;4306;50.210;10.628;2023-03-14T00:27:23;1.77;;;0.80;;
8536;SDS011;4306;50.210;10.628;2023-03-14T00:29:49;2.28;;;0.90;;
8536;SDS011;4306;50.210;10.628;2023-03-14T00:32:16;1.35;;;0.80;;
8536;SDS011;4306;50.210;10.628;2023-03-14T00:34:43;1.27;;;0.60;;
8536;SDS011;4306;50.210;10.628;2023-03-14T00:37:11;3.08;;;0.90;;
8536;SDS011;4306;50.210;10.628;2023-03-14T00:39:38;2.35;;;0.90;;
8536;SDS011;4306;50.210;10.628;2023-03-14T00:42:05;2.88;;;0.80;;
8536;SDS011;4306;50.210;10.628;2023-03-14T00:44:32;1.25;;;0.73;;
8536;SDS011;4306;50.210;10.628;2023-03-14T00:46:59;0.95;;;0.70;;
8536;SDS011;4306;50.210;10.628;2023-03-14T00:49:25;2.65;;;0.75;;
8536;SDS011;4306;50.210;10.628;2023-03-14T00:51:52;1.25;;;0.60;;
8536;SDS011;4306;50.210;10.628;2023-03-14T00:54:21;1.27;;;0.77;;
8536;SDS011;4306;50.210;10.628;2023-03-14T00:56:48;0.90;;;0.73;;
8536;SDS011;4306;50.210;10.628;2023-03-14T00:59:15;1.80;;;0.60;;
8536;SDS011;4306;50.210;10.628;2023-03-14T01:01:42;1.58;;;0.70;;
8536;SDS011;4306;50.210;10.628;2023-03-14T01:04:09;1.45;;;0.55;;
8536;SDS011;4306;50.210;10.628;2023-03-14T01:06:36;2.00;;;0.73;;
8536;SDS011;4306;50.210;10.628;2023-03-14T01:09:03;0.63;;;0.47;;
8536;SDS011;4306;50.210;10.628;2023-03-14T01:11:32;1.55;;;0.80;;
8536;SDS011;4306;50.210;10.628;2023-03-14T01:14:00;0.82;;;0.60;;
8536;SDS011;4306;50.210;10.628;2023-03-14T01:16:29;1.27;;;0.52;;
8536;SDS011;4306;50.210;10.628;2023-03-14T01:18:57;0.90;;;0.60;;
8536;SDS011;4306;50.210;10.628;2023-03-14T01:21:24;2.00;;;0.70;;
8536;SDS011;4306;50.210;10.628;2023-03-14T01:23:53;1.58;;;0.60;;
8536;SDS011;4306;50.210;10.628;2023-03-14T01:26:22;2.28;;;0.93;;
8536;SDS011;4306;50.210;10.628;2023-03-14T01:28:52;0.88;;;0.43;;
8536;SDS011;4306;50.210;10.628;2023-03-14T01:31:19;0.93;;;0.70;;
8536;SDS011;4306;50.210;10.628;2023-03-14T01:33:46;1.30;;;0.50;;
8536;SDS011;4306;50.210;10.628;2023-03-14T01:36:13;1.05;;;0.70;;
8536;SDS011;4306;50.210;10.628;2023-03-14T01:38:40;1.00;;;0.60;;
8536;SDS011;4306;50.210;10.628;2023-03-14T01:41:08;1.02;;;0.47;;
8536;SDS011;4306;50.210;10.628;2023-03-14T01:43:38;1.67;;;0.60;;
8536;SDS011;4306;50.210;10.628;2023-03-14T01:46:18;0.77;;;0.55;;
8536;SDS011;4306;50.210;10.628;2023-03-14T01:48:52;0.40;;;0.40;;
8536;SDS011;4306;50.210;10.628;2023-03-14T01:51:24;0.80;;;0.57;;
8536;SDS011;4306;50.210;10.628;2023-03-14T01:53:55;3.30;;;0.68;;
8536;SDS011;4306;50.210;10.628;2023-03-14T01:56:29;1.38;;;0.65;;
8536;SDS011;4306;50.210;10.628;2023-03-14T01:58:57;1.15;;;0.60;;
8536;SDS011;4306;50.210;10.628;2023-03-14T02:01:27;1.63;;;0.85;;
8536;SDS011;4306;50.210;10.628;2023-03-14T02:03:56;0.90;;;0.52;;
8536;SDS011;4306;50.210;10.628;2023-03-14T02:06:29;0.52;;;0.52;;
8536;SDS011;4306;50.210;10.628;2023-03-14T02:09:01;1.70;;;0.70;;
8536;SDS011;4306;50.210;10.628;2023-03-14T02:11:29;3.05;;;0.68;;
8536;SDS011;4306;50.210;10.628;2023-03-14T02:13:57;1.35;;;0.70;;
8536;SDS011;4306;50.210;10.628;2023-03-14T02:16:25;1.20;;;0.57;;
8536;SDS011;4306;50.210;10.628;2023-03-14T02:18:53;1.00;;;0.60;;
8536;SDS011;4306;50.210;10.628;2023-03-14T02:21:22;1.90;;;0.75;;
8536;SDS011;4306;50.210;10.628;2023-03-14T02:23:58;2.67;;;0.60;;
8536;SDS011;4306;50.210;10.628;2023-03-14T02:26:31;1.63;;;0.60;;
8536;SDS011;4306;50.210;10.628;2023-03-14T02:29:04;1.58;;;0.70;;
8536;SDS011;4306;50.210;10.628;2023-03-14T02:31:31;1.27;;;0.60;;
8536;SDS011;4306;50.210;10.628;2023-03-14T02:33:59;0.75;;;0.35;;
8536;SDS011;4306;50.210;10.628;2023-03-14T02:36:27;1.58;;;0.70;;
8536;SDS011;4306;50.210;10.628;2023-03-14T02:38:55;1.30;;;0.60;;
8536;SDS011;4306;50.210;10.628;2023-03-14T02:41:29;2.55;;;0.80;;
8536;SDS011;4306;50.210;10.628;2023-03-14T02:43:56;1.92;;;0.60;;
8536;SDS011;4306;50.210;10.628;2023-03-14T02:46:24;2.38;;;0.70;;
8536;SDS011;4306;50.210;10.628;2023-03-14T02:48:53;2.35;;;0.95;;
8536;SDS011;4306;50.210;10.628;2023-03-14T02:51:22;2.80;;;0.70;;
8536;SDS011;4306;50.210;10.628;2023-03-14T02:53:51;1.95;;;0.60;;
8536;SDS011;4306;50.210;10.628;2023-03-14T02:56:18;3.15;;;0.60;;
8536;SDS011;4306;50.210;10.628;2023-03-14T02:58:46;2.53;;;0.68;;
8536;SDS011;4306;50.210;10.628;2023-03-14T03:01:12;1.65;;;0.50;;
8536;SDS011;4306;50.210;10.628;2023-03-14T03:03:41;1.52;;;0.88;;
8536;SDS011;4306;50.210;10.628;2023-03-14T03:06:08;1.63;;;0.60;;
8536;SDS011;4306;50.210;10.628;2023-03-14T03:08:34;0.85;;;0.50;;
8536;SDS011;4306;50.210;10.628;2023-03-14T03:11:02;4.45;;;0.80;;
8536;SDS011;4306;50.210;10.628;2023-03-14T03:13:31;1.13;;;0.63;;
8536;SDS011;4306;50.210;10.628;2023-03-14T03:15:57;0.63;;;0.60;;
8536;SDS011;4306;50.210;10.628;2023-03-14T03:18:24;4.18;;;2.35;;
8536;SDS011;4306;50.210;10.628;2023-03-14T03:20:52;8.23;;;4.28;;
8536;SDS011;4306;50.210;10.628;2023-03-14T03:23:19;40.28;;;22.05;;
8536;SDS011;4306;50.210;10.628;2023-03-14T03:25:49;44.08;;;21.92;;
8536;SDS011;4306;50.210;10.628;2023-03-14T03:28:17;18.92;;;11.15;;
8536;SDS011;4306;50.210;10.628;2023-03-14T03:30:44;8.30;;;5.28;;
8536;SDS011;4306;50.210;10.628;2023-03-14T03:33:11;6.43;;;2.15;;
8536;SDS011;4306;50.210;10.628;2023-03-14T03:35:44;4.45;;;1.67;;
8536;SDS011;4306;50.210;10.628;2023-03-14T03:38:14;2.63;;;1.40;;
8536;SDS011;4306;50.210;10.628;2023-03-14T03:40:41;1.80;;;1.00;;
8536;SDS011;4306;50.210;10.628;2023-03-14T03:43:08;1.98;;;0.85;;
8536;SDS011;4306;50.210;10.628;2023-03-14T03:45:35;1.90;;;0.80;;
8536;SDS011;4306;50.210;10.628;2023-03-14T03:48:02;1.75;;;0.80;;
8536;SDS011;4306;50.210;10.628;2023-03-14T03:50:29;3.63;;;1.60;;
8536;SDS011;4306;50.210;10.628;2023-03-14T03:52:56;1.98;;;0.95;;
8536;SDS011;4306;50.210;10.628;2023-03-14T03:55:24;1.95;;;0.75;;
8536;SDS011;4306;50.210;10.628;2023-03-14T03:57:53;1.65;;;0.80;;
8536;SDS011;4306;50.210;10.628;2023-03-14T04:00:19;2.80;;;1.00;;
8536;SDS011;4306;50.210;10.628;2023-03-14T04:02:46;2.90;;;1.10;;
8536;SDS011;4306;50.210;10.628;2023-03-14T04:05:13;1.90;;;0.70;;
8536;SDS011;4306;50.210;10.628;2023-03-14T04:07:40;5.30;;;1.33;;
8536;SDS011;4306;50.210;10.628;2023-03-14T04:10:07;3.42;;;1.08;;
8536;SDS011;4306;50.210;10.628;2023-03-14T04:12:36;2.33;;;1.20;;
8536;SDS011;4306;50.210;10.628;2023-03-14T04:15:03;2.75;;;1.50;;
8536;SDS011;4306;50.210;10.628;2023-03-14T04:17:31;2.60;;;0.95;;
8536;SDS011;4306;50.210;10.628;2023-03-14T04:19:58;3.08;;;1.33;;
8536;SDS011;4306;50.210;10.628;2023-03-14T04:22:24;2.17;;;0.90;;
8536;SDS011;4306;50.210;10.628;2023-03-14T04:24:51;3.30;;;0.85;;
8536;SDS011;4306;50.210;10.628;2023-03-14T04:27:18;3.45;;;1.48;;
8536;SDS011;4306;50.210;10.628;2023-03-14T04:29:46;3.10;;;1.08;;
8536;SDS011;4306;50.210;10.628;2023-03-14T04:32:13;6.47;;;1.00;;
8536;SDS011;4306;50.210;10.628;2023-03-14T04:34:40;5.25;;;2.92;;
8536;SDS011;4306;50.210;10.628;2023-03-14T04:37:07;5.18;;;1.60;;
8536;SDS011;4306;50.210;10.628;2023-03-14T04:39:34;2.28;;;0.93;;
8536;SDS011;4306;50.210;10.628;2023-03-14T04:42:01;2.85;;;1.00;;
8536;SDS011;4306;50.210;10.628;2023-03-14T04:44:27;3.03;;;0.93;;
8536;SDS011;4306;50.210;10.628;2023-03-14T04:46:56;6.25;;;1.33;;
8536;SDS011;4306;50.210;10.628;2023-03-14T04:49:23;2.17;;;0.90;;
8536;SDS011;4306;50.210;10.628;2023-03-14T04:51:49;1.73;;;0.80;;
8536;SDS011;4306;50.210;10.628;2023-03-14T04:54:16;2.70;;;0.82;;
8536;SDS011;4306;50.210;10.628;2023-03-14T04:56:43;3.42;;;0.90;;
8536;SDS011;4306;50.210;10.628;2023-03-14T04:59:10;2.33;;;0.90;;
8536;SDS011;4306;50.210;10.628;2023-03-14T05:01:37;1.67;;;0.85;;
8536;SDS011;4306;50.210;10.628;2023-03-14T05:04:05;2.88;;;0.80;;
8536;SDS011;4306;50.210;10.628;2023-03-14T05:06:32;2.20;;;0.90;;
8536;SDS011;4306;50.210;10.628;2023-03-14T05:08:59;1.45;;;0.73;;
8536;SDS011;4306;50.210;10.628;2023-03-14T05:11:27;1.85;;;0.82;;
8536;SDS011;4306;50.210;10.628;2023-03-14T05:13:54;1.30;;;0.70;;
8536;SDS011;4306;50.210;10.628;2023-03-14T05:16:21;2.70;;;1.08;;
8536;SDS011;4306;50.210;10.628;2023-03-14T05:18:48;1.40;;;0.63;;
8536;SDS011;4306;50.210;10.628;2023-03-14T05:21:16;0.90;;;0.70;;
8536;SDS011;4306;50.210;10.628;2023-03-14T05:23:43;2.30;;;1.02;;
8536;SDS011;4306;50.210;10.628;2023-03-14T05:26:09;1.48;;;0.80;;
8536;SDS011;4306;50.210;10.628;2023-03-14T05:28:36;3.78;;;1.15;;
8536;SDS011;4306;50.210;10.628;2023-03-14T05:31:05;2.15;;;0.80;;
8536;SDS011;4306;50.210;10.628;2023-03-14T05:33:33;3.50;;;1.98;;
8536;SDS011;4306;50.210;10.628;2023-03-14T05:35:59;2.90;;;0.80;;
8536;SDS011;4306;50.210;10.628;2023-03-14T05:38:27;2.55;;;1.00;;
8536;SDS011;4306;50.210;10.628;2023-03-14T05:40:54;2.88;;;0.82;;
8536;SDS011;4306;50.210;10.628;2023-03-14T05:43:21;1.30;;;1.00;;
8536;SDS011;4306;50.210;10.628;2023-03-14T05:45:48;2.08;;;1.00;;
8536;SDS011;4306;50.210;10.628;2023-03-14T05:48:15;3.35;;;0.82;;
8536;SDS011;4306;50.210;10.628;2023-03-14T05:50:43;2.55;;;0.85;;
8536;SDS011;4306;50.210;10.628;2023-03-14T05:53:10;4.07;;;1.05;;
8536;SDS011;4306;50.210;10.628;2023-03-14T05:55:38;2.22;;;0.80;;
8536;SDS011;4306;50.210;10.628;2023-03-14T05:58:05;1.92;;;0.90;;
8536;SDS011;4306;50.210;10.628;2023-03-14T06:00:32;1.83;;;0.98;;
8536;SDS011;4306;50.210;10.628;2023-03-14T06:02:58;5.10;;;1.05;;
8536;SDS011;4306;50.210;10.628;2023-03-14T06:05:25;2.35;;;1.05;;
8536;SDS011;4306;50.210;10.628;2023-03-14T06:07:52;3.70;;;0.90;;
8536;SDS011;4306;50.210;10.628;2023-03-14T06:10:19;2.30;;;1.10;;
8536;SDS011;4306;50.210;10.628;2023-03-14T06:12:48;2.58;;;1.23;;
8536;SDS011;4306;50.210;10.628;2023-03-14T06:15:15;3.08;;;1.33;;
8536;SDS011;4306;50.210;10.628;2023-03-14T06:17:41;2.80;;;1.20;;
8536;SDS011;4306;50.210;10.628;2023-03-14T06:20:09;3.67;;;1.33;;
8536;SDS011;4306;50.210;10.628;2023-03-14T06:22:36;3.17;;;1.08;;
8536;SDS011;4306;50.210;10.628;2023-03-14T06:25:04;4.38;;;1.60;;
8536;SDS011;4306;50.210;10.628;2023-03-14T06:27:31;3.25;;;1.10;;
8536;SDS011;4306;50.210;10.628;2023-03-14T06:30:00;5.15;;;1.38;;
8536;SDS011;4306;50.210;10.628;2023-03-14T06:32:27;6.20;;;3.20;;
8536;SDS011;4306;50.210;10.628;2023-03-14T06:34:53;3.60;;;1.33;;
8536;SDS011;4306;50.210;10.628;2023-03-14T06:37:22;3.42;;;0.98;;
8536;SDS011;4306;50.210;10.628;2023-03-14T06:39:48;3.80;;;0.98;;
8536;SDS011;4306;50.210;10.628;2023-03-14T06:42:15;2.38;;;0.90;;
8536;SDS011;4306;50.210;10.628;2023-03-14T06:44:42;2.20;;;1.05;;
8536;SDS011;4306;50.210;10.628;2023-03-14T06:47:10;3.20;;;1.08;;
8536;SDS011;4306;50.210;10.628;2023-03-14T06:49:37;2.03;;;0.85;;
8536;SDS011;4306;50.210;10.628;2023-03-14T06:52:04;2.20;;;0.98;;
8536;SDS011;4306;50.210;10.628;2023-03-14T06:54:31;2.45;;;0.82;;
8536;SDS011;4306;50.210;10.628;2023-03-14T06:56:57;1.98;;;0.80;;
8536;SDS011;4306;50.210;10.628;2023-03-14T06:59:24;3.75;;;0.85;;
8536;SDS011;4306;50.210;10.628;2023-03-14T07:01:51;2.88;;;0.90;;
8536;SDS011;4306;50.210;10.628;2023-03-14T07:04:19;1.75;;;1.00;;
8536;SDS011;4306;50.210;10.628;2023-03-14T07:06:46;3.45;;;0.98;;
8536;SDS011;4306;50.210;10.628;2023-03-14T07:09:13;3.13;;;1.58;;
8536;SDS011;4306;50.210;10.628;2023-03-14T07:11:42;3.05;;;1.10;;
8536;SDS011;4306;50.210;10.628;2023-03-14T07:14:09;4.78;;;1.08;;
8536;SDS011;4306;50.210;10.628;2023-03-14T07:16:35;2.53;;;0.80;;
8536;SDS011;4306;50.210;10.628;2023-03-14T07:19:02;2.15;;;0.82;;
8536;SDS011;4306;50.210;10.628;2023-03-14T07:21:31;2.63;;;0.90;;
8536;SDS011;4306;50.210;10.628;2023-03-14T07:23:59;3.25;;;0.98;;
8536;SDS011;4306;50.210;10.628;2023-03-14T07:26:26;3.00;;;0.90;;
8536;SDS011;4306;50.210;10.628;2023-03-14T07:28:53;3.05;;;0.95;;
8536;SDS011;4306;50.210;10.628;2023-03-14T07:31:20;2.75;;;0.70;;
8536;SDS011;4306;50.210;10.628;2023-03-14T07:33:46;2.22;;;0.80;;
8536;SDS011;4306;50.210;10.628;2023-03-14T07:36:13;2.67;;;0.73;;
8536;SDS011;4306;50.210;10.628;2023-03-14T07:38:42;3.00;;;1.35;;
8536;SDS011;4306;50.210;10.628;2023-03-14T07:41:08;2.05;;;1.00;;
8536;SDS011;4306;50.210;10.628;2023-03-14T07:43:35;1.40;;;0.88;;
8536;SDS011;4306;50.210;10.628;2023-03-14T07:46:02;5.65;;;0.90;;
8536;SDS011;4306;50.210;10.628;2023-03-14T07:48:29;1.40;;;0.75;;
8536;SDS011;4306;50.210;10.628;2023-03-14T07:50:56;2.30;;;0.95;;
8536;SDS011;4306;50.210;10.628;2023-03-14T07:53:23;4.88;;;1.40;;
8536;SDS011;4306;50.210;10.628;2023-03-14T07:55:52;4.18;;;1.10;;
8536;SDS011;4306;50.210;10.628;2023-03-14T07:58:19;1.48;;;0.70;;
8536;SDS011;4306;50.210;10.628;2023-03-14T08:00:46;2.65;;;0.73;;
8536;SDS011;4306;50.210;10.628;2023-03-14T08:03:13;2.50;;;0.77;;
8536;SDS011;4306;50.210;10.628;2023-03-14T08:05:40;1.23;;;0.70;;
8536;SDS011;4306;50.210;10.628;2023-03-14T08:08:07;0.93;;;0.55;;
8536;SDS011;4306;50.210;10.628;2023-03-14T08:10:34;2.00;;;0.60;;
8536;SDS011;4306;50.210;10.628;2023-03-14T08:13:02;1.88;;;0.70;;
8536;SDS011;4306;50.210;10.628;2023-03-14T08:15:29;3.30;;;0.98;;
8536;SDS011;4306;50.210;10.628;2023-03-14T08:17:57;3.13;;;0.75;;
8536;SDS011;4306;50.210;10.628;2023-03-14T08:20:24;4.38;;;0.80;;
8536;SDS011;4306;50.210;10.628;2023-03-14T08:22:54;1.75;;;0.70;;
8536;SDS011;4306;50.210;10.628;2023-03-14T08:25:22;2.75;;;1.00;;
8536;SDS011;4306;50.210;10.628;2023-03-14T08:27:48;3.53;;;0.90;;
8536;SDS011;4306;50.210;10.628;2023-03-14T08:32:45;4.53;;;1.20;;
8536;SDS011;4306;50.210;10.628;2023-03-14T08:35:12;2.63;;;0.98;;
8536;SDS011;4306;50.210;10.628;2023-03-14T08:37:39;2.05;;;0.77;;
8536;SDS011;4306;50.210;10.628;2023-03-14T08:40:07;2.13;;;0.70;;
8536;SDS011;4306;50.210;10.628;2023-03-14T08:42:35;2.75;;;0.88;;
8536;SDS011;4306;50.210;10.628;2023-03-14T08:45:02;3.38;;;0.70;;
8536;SDS011;4306;50.210;10.628;2023-03-14T08:47:31;2.53;;;1.00;;
8536;SDS011;4306;50.210;10.628;2023-03-14T08:49:58;5.22;;;1.05;;
8536;SDS011;4306;50.210;10.628;2023-03-14T08:52:25;3.42;;;0.73;;
8536;SDS011;4306;50.210;10.628;2023-03-14T08:54:51;1.58;;;0.60;;
8536;SDS011;4306;50.210;10.628;2023-03-14T08:57:18;3.35;;;1.02;;
8536;SDS011;4306;50.210;10.628;2023-03-14T08:59:46;1.63;;;0.60;;
8536;SDS011;4306;50.210;10.628;2023-03-14T09:02:13;3.63;;;0.90;;
8536;SDS011;4306;50.210;10.628;2023-03-14T09:04:41;3.97;;;0.80;;
8536;SDS011;4306;50.210;10.628;2023-03-14T09:07:08;3.97;;;0.80;;
8536;SDS011;4306;50.210;10.628;2023-03-14T09:09:35;2.28;;;0.85;;
8536;SDS011;4306;50.210;10.628;2023-03-14T09:12:02;3.40;;;0.90;;
8536;SDS011;4306;50.210;10.628;2023-03-14T09:14:30;2.85;;;1.20;;
8536;SDS011;4306;50.210;10.628;2023-03-14T09:16:57;2.08;;;0.80;;
8536;SDS011;4306;50.210;10.628;2023-03-14T09:19:24;2.65;;;0.70;;
8536;SDS011;4306;50.210;10.628;2023-03-14T09:21:52;3.70;;;0.85;;
8536;SDS011;4306;50.210;10.628;2023-03-14T09:24:20;2.42;;;0.50;;
8536;SDS011;4306;50.210;10.628;2023-03-14T09:26:46;2.13;;;0.88;;
8536;SDS011;4306;50.210;10.628;2023-03-14T09:29:13;2.50;;;0.70;;
8536;SDS011;4306;50.210;10.628;2023-03-14T09:31:40;2.55;;;0.93;;
8536;SDS011;4306;50.210;10.628;2023-03-14T09:34:07;3.45;;;1.00;;
8536;SDS011;4306;50.210;10.628;2023-03-14T09:36:34;2.35;;;0.90;;
8536;SDS011;4306;50.210;10.628;2023-03-14T09:39:04;2.05;;;0.80;;
8536;SDS011;4306;50.210;10.628;2023-03-14T09:41:32;2.33;;;0.85;;
8536;SDS011;4306;50.210;10.628;2023-03-14T09:44:03;5.20;;;2.10;;
8536;SDS011;4306;50.210;10.628;2023-03-14T09:46:35;4.68;;;0.90;;
8536;SDS011;4306;50.210;10.628;2023-03-14T09:49:05;4.35;;;0.80;;
8536;SDS011;4306;50.210;10.628;2023-03-14T09:51:37;2.25;;;1.02;;
8536;SDS011;4306;50.210;10.628;2023-03-14T09:54:06;4.57;;;1.20;;
8536;SDS011;4306;50.210;10.628;2023-03-14T09:56:44;3.67;;;0.60;;
8536;SDS011;4306;50.210;10.628;2023-03-14T09:59:11;3.85;;;0.95;;
8536;SDS011;4306;50.210;10.628;2023-03-14T10:01:39;1.77;;;0.75;;
8536;SDS011;4306;50.210;10.628;2023-03-14T10:04:10;2.45;;;0.80;;
8536;SDS011;4306;50.210;10.628;2023-03-14T10:06:39;1.38;;;0.55;;
8536;SDS011;4306;50.210;10.628;2023-03-14T10:09:08;3.17;;;0.75;;
8536;SDS011;4306;50.210;10.628;2023-03-14T10:11:36;4.32;;;0.70;;
8536;SDS011;4306;50.210;10.628;2023-03-14T10:14:06;1.75;;;0.50;;
8536;SDS011;4306;50.210;10.628;2023-03-14T10:16:35;4.25;;;0.63;;
8536;SDS011;4306;50.210;10.628;2023-03-14T10:19:07;1.85;;;0.73;;
8536;SDS011;4306;50.210;10.628;2023-03-14T10:21:37;0.38;;;0.32;;
8536;SDS011;4306;50.210;10.628;2023-03-14T10:24:20;0.40;;;0.40;;
8536;SDS011;4306;50.210;10.628;2023-03-14T10:26:49;1.48;;;0.50;;
8536;SDS011;4306;50.210;10.628;2023-03-14T10:29:18;1.27;;;0.47;;
8536;SDS011;4306;50.210;10.628;2023-03-14T10:31:47;1.52;;;0.60;;
8536;SDS011;4306;50.210;10.628;2023-03-14T10:34:22;0.55;;;0.40;;
8536;SDS011;4306;50.210;10.628;2023-03-14T10:36:54;0.95;;;0.40;;
8536;SDS011;4306;50.210;10.628;2023-03-14T10:39:32;0.93;;;0.40;;
8536;SDS011;4306;50.210;10.628;2023-03-14T10:42:10;2.20;;;0.50;;
8536;SDS011;4306;50.210;10.628;2023-03-14T10:44:44;2.30;;;0.57;;
8536;SDS011;4306;50.210;10.628;2023-03-14T10:47:18;0.90;;;0.43;;
8536;SDS011;4306;50.210;10.628;2023-03-14T10:49:48;1.42;;;0.45;;
8536;SDS011;4306;50.210;10.628;2023-03-14T10:52:18;2.45;;;0.60;;
8536;SDS011;4306;50.210;10.628;2023-03-14T10:54:49;1.13;;;0.63;;
8536;SDS011;4306;50.210;10.628;2023-03-14T10:57:22;1.42;;;0.50;;
8536;SDS011;4306;50.210;10.628;2023-03-14T10:59:50;1.50;;;0.68;;
8536;SDS011;4306;50.210;10.628;2023-03-14T11:02:27;1.30;;;0.60;;
8536;SDS011;4306;50.210;10.628;2023-03-14T11:05:09;1.23;;;0.45;;
8536;SDS011;4306;50.210;10.628;2023-03-14T11:07:49;2.13;;;0.47;;
8536;SDS011;4306;50.210;10.628;2023-03-14T11:10:21;2.70;;;0.60;;
8536;SDS011;4306;50.210;10.628;2023-03-14T11:12:59;0.85;;;0.43;;
8536;SDS011;4306;50.210;10.628;2023-03-14T11:15:36;0.55;;;0.30;;
8536;SDS011;4306;50.210;10.628;2023-03-14T11:18:13;2.38;;;0.52;;
8536;SDS011;4306;50.210;10.628;2023-03-14T11:20:52;1.20;;;0.40;;
8536;SDS011;4306;50.210;10.628;2023-03-14T11:23:22;1.10;;;0.43;;
8536;SDS011;4306;50.210;10.628;2023-03-14T11:25:56;1.33;;;0.50;;
8536;SDS011;4306;50.210;10.628;2023-03-14T11:28:29;0.98;;;0.52;;
8536;SDS011;4306;50.210;10.628;2023-03-14T11:31:03;0.85;;;0.50;;
8536;SDS011;4306;50.210;10.628;2023-03-14T11:33:37;1.52;;;0.60;;
8536;SDS011;4306;50.210;10.628;2023-03-14T11:36:18;1.27;;;0.63;;
8536;SDS011;4306;50.210;10.628;2023-03-14T11:38:48;1.17;;;0.57;;
8536;SDS011;4306;50.210;10.628;2023-03-14T11:41:18;0.70;;;0.47;;
8536;SDS011;4306;50.210;10.628;2023-03-14T11:44:01;1.90;;;0.80;;
8536;SDS011;4306;50.210;10.628;2023-03-14T11:46:34;4.53;;;0.55;;
8536;SDS011;4306;50.210;10.628;2023-03-14T11:49:06;0.43;;;0.30;;
8536;SDS011;4306;50.210;10.628;2023-03-14T11:51:38;1.83;;;0.40;;
8536;SDS011;4306;50.210;10.628;2023-03-14T11:54:11;0.95;;;0.40;;
8536;SDS011;4306;50.210;10.628;2023-03-14T11:56:45;1.30;;;0.70;;
8536;SDS011;4306;50.210;10.628;2023-03-14T11:59:16;0.88;;;0.40;;
8536;SDS011;4306;50.210;10.628;2023-03-14T12:01:50;0.85;;;0.45;;
8536;SDS011;4306;50.210;10.628;2023-03-14T12:04:22;0.38;;;0.35;;
8536;SDS011;4306;50.210;10.628;2023-03-14T12:07:00;1.02;;;0.35;;
8536;SDS011;4306;50.210;10.628;2023-03-14T12:09:29;2.17;;;0.55;;
8536;SDS011;4306;50.210;10.628;2023-03-14T12:11:58;1.95;;;0.40;;
8536;SDS011;4306;50.210;10.628;2023-03-14T12:14:28;0.22;;;0.22;;
8536;SDS011;4306;50.210;10.628;2023-03-14T12:16:57;0.95;;;0.30;;
8536;SDS011;4306;50.210;10.628;2023-03-14T12:19:29;1.27;;;0.50;;
8536;SDS011;4306;50.210;10.628;2023-03-14T12:21:59;3.03;;;0.30;;
8536;SDS011;4306;50.210;10.628;2023-03-14T12:24:32;0.28;;;0.28;;
8536;SDS011;4306;50.210;10.628;2023-03-14T12:27:03;0.50;;;0.50;;
8536;SDS011;4306;50.210;10.628;2023-03-14T12:29:33;0.65;;;0.45;;
8536;SDS011;4306;50.210;10.628;2023-03-14T12:32:25;1.58;;;0.95;;
8536;SDS011;4306;50.210;10.628;2023-03-14T12:34:52;0.80;;;0.60;;
8536;SDS011;4306;50.210;10.628;2023-03-14T12:40:17;1.10;;;0.82;;
8536;SDS011;4306;50.210;10.628;2023-03-14T12:42:54;0.73;;;0.50;;
8536;SDS011;4306;50.210;10.628;2023-03-14T12:45:25;0.35;;;0.22;;
8536;SDS011;4306;50.210;10.628;2023-03-14T12:50:41;0.57;;;0.40;;
8536;SDS011;4306;50.210;10.628;2023-03-14T12:53:36;0.40;;;0.40;;
8536;SDS011;4306;50.210;10.628;2023-03-14T12:56:24;1.15;;;0.30;;
8536;SDS011;4306;50.210;10.628;2023-03-14T13:02:01;1.40;;;0.57;;
8536;SDS011;4306;50.210;10.628;2023-03-14T13:04:43;0.55;;;0.40;;
8536;SDS011;4306;50.210;10.628;2023-03-14T13:07:13;0.60;;;0.60;;
8536;SDS011;4306;50.210;10.628;2023-03-14T13:10:02;1.48;;;0.50;;
8536;SDS011;4306;50.210;10.628;2023-03-14T13:12:34;0.60;;;0.50;;
8536;SDS011;4306;50.210;10.628;2023-03-14T13:15:13;1.95;;;0.50;;
8536;SDS011;4306;50.210;10.628;2023-03-14T13:17:45;0.90;;;0.55;;
8536;SDS011;4306;50.210;10.628;2023-03-14T13:20:14;0.70;;;0.52;;
8536;SDS011;4306;50.210;10.628;2023-03-14T13:22:46;1.02;;;0.50;;
8536;SDS011;4306;50.210;10.628;2023-03-14T13:25:15;0.93;;;0.60;;
8536;SDS011;4306;50.210;10.628;2023-03-14T13:27:43;0.85;;;0.50;;
8536;SDS011;4306;50.210;10.628;2023-03-14T13:30:19;0.60;;;0.50;;
8536;SDS011;4306;50.210;10.628;2023-03-14T13:32:49;1.23;;;0.70;;
8536;SDS011;4306;50.210;10.628;2023-03-14T13:35:18;1.30;;;0.90;;
8536;SDS011;4306;50.210;10.628;2023-03-14T13:37:47;0.82;;;0.63;;
8536;SDS011;4306;50.210;10.628;2023-03-14T13:40:20;1.17;;;0.80;;
8536;SDS011;4306;50.210;10.628;2023-03-14T13:42:59;3.25;;;1.13;;
8536;SDS011;4306;50.210;10.628;2023-03-14T13:45:31;1.55;;;0.80;;
8536;SDS011;4306;50.210;10.628;2023-03-14T13:48:18;3.50;;;1.48;;
8536;SDS011;4306;50.210;10.628;2023-03-14T13:50:53;3.95;;;1.42;;
8536;SDS011;4306;50.210;10.628;2023-03-14T13:53:22;2.47;;;1.20;;
8536;SDS011;4306;50.210;10.628;2023-03-14T13:55:49;3.03;;;1.50;;
8536;SDS011;4306;50.210;10.628;2023-03-14T13:58:21;2.70;;;1.75;;
8536;SDS011;4306;50.210;10.628;2023-03-14T14:00:58;2.00;;;1.38;;
8536;SDS011;4306;50.210;10.628;2023-03-14T14:03:27;1.38;;;1.02;;
8536;SDS011;4306;50.210;10.628;2023-03-14T14:05:56;2.75;;;1.58;;
8536;SDS011;4306;50.210;10.628;2023-03-14T14:08:24;2.10;;;1.33;;
8536;SDS011;4306;50.210;10.628;2023-03-14T14:10:53;1.02;;;0.65;;
8536;SDS011;4306;50.210;10.628;2023-03-14T14:13:24;7.00;;;3.08;;
8536;SDS011;4306;50.210;10.628;2023-03-14T14:15:54;2.42;;;1.20;;
8536;SDS011;4306;50.210;10.628;2023-03-14T14:18:25;4.53;;;2.25;;
8536;SDS011;4306;50.210;10.628;2023-03-14T14:20:54;3.78;;;1.70;;
8536;SDS011;4306;50.210;10.628;2023-03-14T14:23:22;6.15;;;3.88;;
8536;SDS011;4306;50.210;10.628;2023-03-14T14:25:53;5.63;;;1.80;;
8536;SDS011;4306;50.210;10.628;2023-03-14T14:28:24;1.55;;;1.08;;
8536;SDS011;4306;50.210;10.628;2023-03-14T14:31:01;1.02;;;0.85;;
8536;SDS011;4306;50.210;10.628;2023-03-14T14:33:37;2.10;;;1.30;;
8536;SDS011;4306;50.210;10.628;2023-03-14T14:36:11;1.88;;;1.00;;
8536;SDS011;4306;50.210;10.628;2023-03-14T14:38:48;1.90;;;1.30;;
8536;SDS011;4306;50.210;10.628;2023-03-14T14:41:19;1.63;;;1.00;;
8536;SDS011;4306;50.210;10.628;2023-03-14T14:43:46;2.78;;;1.33;;
8536;SDS011;4306;50.210;10.628;2023-03-14T14:46:17;2.17;;;1.40;;
8536;SDS011;4306;50.210;10.628;2023-03-14T14:48:45;2.05;;;0.93;;
8536;SDS011;4306;50.210;10.628;2023-03-14T14:51:22;2.95;;;1.48;;
8536;SDS011;4306;50.210;10.628;2023-03-14T14:53:59;2.47;;;0.85;;
8536;SDS011;4306;50.210;10.628;2023-03-14T14:56:34;1.33;;;0.90;;
8536;SDS011;4306;50.210;10.628;2023-03-14T14:59:02;1.33;;;0.80;;
8536;SDS011;4306;50.210;10.628;2023-03-14T15:01:32;1.30;;;0.88;;
8536;SDS011;4306;50.210;10.628;2023-03-14T15:04:00;1.73;;;1.10;;
8536;SDS011;4306;50.210;10.628;2023-03-14T15:06:28;1.92;;;1.17;;
8536;SDS011;4306;50.210;10.628;2023-03-14T15:08:56;2.20;;;1.23;;
8536;SDS011;4306;50.210;10.628;2023-03-14T15:11:24;4.68;;;1.85;;
8536;SDS011;4306;50.210;10.628;2023-03-14T15:13:52;1.55;;;1.00;;
8536;SDS011;4306;50.210;10.628;2023-03-14T15:16:20;1.40;;;0.90;;
8536;SDS011;4306;50.210;10.628;2023-03-14T15:18:52;2.45;;;1.30;;
8536;SDS011;4306;50.210;10.628;2023-03-14T15:21:21;1.35;;;0.90;;
8536;SDS011;4306;50.210;10.628;2023-03-14T15:23:48;5.60;;;1.52;;